sensor_id;sensor_type;location;lat;lon;timestamp;temperature;humidity
73955;DHT22;62306;52.516;13.290;2024-02-23T00:00:28;10.60;99.90
73955;DHT22;62306;52.516;13.290;2024-02-23T00:02:55;10.60;99.90
73955;DHT22;62306;52.516;13.290;2024-02-23T00:05:24;10.60;99.90
73955;DHT22;62306;52.516;13.290;2024-02-23T00:07:51;10.60;99.90
73955;DHT22;62306;52.516;13.290;2024-02-23T00:10:18;10.60;99.90
73955;DHT22;62306;52.516;13.290;2024-02-23T00:12:45;10.60;99.90
73955;DHT22;62306;52.516;13.290;2024-02-23T00:15:13;10.60;99.90
73955;DHT22;62306;52.516;13.290;2024-02-23T00:17:40;10.70;99.90
73955;DHT22;62306;52.516;13.290;2024-02-23T00:20:09;10.70;99.90
73955;DHT22;62306;52.516;13.290;2024-02-23T00:22:38;10.80;99.90
73955;DHT22;62306;52.516;13.290;2024-02-23T00:25:05;10.80;99.90
73955;DHT22;62306;52.516;13.290;2024-02-23T00:27:33;10.90;99.90
73955;DHT22;62306;52.516;13.290;2024-02-23T00:30:00;10.90;99.90
73955;DHT22;62306;52.516;13.290;2024-02-23T00:32:27;10.90;99.90
73955;DHT22;62306;52.516;13.290;2024-02-23T00:34:56;10.90;99.90
73955;DHT22;62306;52.516;13.290;2024-02-23T00:37:23;10.90;99.90
73955;DHT22;62306;52.516;13.290;2024-02-23T00:39:52;10.80;99.90
73955;DHT22;62306;52.516;13.290;2024-02-23T00:42:18;10.80;99.90
73955;DHT22;62306;52.516;13.290;2024-02-23T00:44:46;10.80;99.90
73955;DHT22;62306;52.516;13.290;2024-02-23T00:47:13;10.70;99.90
73955;DHT22;62306;52.516;13.290;2024-02-23T00:49:40;10.70;99.90
73955;DHT22;62306;52.516;13.290;2024-02-23T00:52:07;10.70;99.90
73955;DHT22;62306;52.516;13.290;2024-02-23T00:54:34;10.70;99.90
73955;DHT22;62306;52.516;13.290;2024-02-23T00:57:02;10.60;99.90
73955;DHT22;62306;52.516;13.290;2024-02-23T00:59:29;10.60;99.90
73955;DHT22;62306;52.516;13.290;2024-02-23T01:01:56;10.60;99.90
73955;DHT22;62306;52.516;13.290;2024-02-23T01:04:23;10.70;99.90
73955;DHT22;62306;52.516;13.290;2024-02-23T01:06:50;10.70;99.90
73955;DHT22;62306;52.516;13.290;2024-02-23T01:09:17;10.70;99.90
73955;DHT22;62306;52.516;13.290;2024-02-23T01:11:46;10.70;99.90
73955;DHT22;62306;52.516;13.290;2024-02-23T01:14:15;10.70;99.90
73955;DHT22;62306;52.516;13.290;2024-02-23T01:16:42;10.80;99.90
73955;DHT22;62306;52.516;13.290;2024-02-23T01:19:09;10.80;99.90
73955;DHT22;62306;52.516;13.290;2024-02-23T01:21:35;10.80;99.90
73955;DHT22;62306;52.516;13.290;2024-02-23T01:24:03;10.80;99.90
73955;DHT22;62306;52.516;13.290;2024-02-23T01:26:30;10.90;99.90
73955;DHT22;62306;52.516;13.290;2024-02-23T01:28:57;10.90;99.90
73955;DHT22;62306;52.516;13.290;2024-02-23T01:31:25;10.90;99.90
73955;DHT22;62306;52.516;13.290;2024-02-23T01:33:52;10.90;99.90
73955;DHT22;62306;52.516;13.290;2024-02-23T01:36:19;10.90;99.90
73955;DHT22;62306;52.516;13.290;2024-02-23T01:38:46;10.90;99.90
73955;DHT22;62306;52.516;13.290;2024-02-23T01:41:13;10.90;99.90
73955;DHT22;62306;52.516;13.290;2024-02-23T01:43:40;11.00;99.90
73955;DHT22;62306;52.516;13.290;2024-02-23T01:46:07;11.10;99.90
73955;DHT22;62306;52.516;13.290;2024-02-23T01:48:36;11.10;99.90
73955;DHT22;62306;52.516;13.290;2024-02-23T01:51:03;11.10;99.90
73955;DHT22;62306;52.516;13.290;2024-02-23T01:53:30;11.20;99.90
73955;DHT22;62306;52.516;13.290;2024-02-23T01:55:57;11.20;99.90
73955;DHT22;62306;52.516;13.290;2024-02-23T01:58:25;11.20;99.90
73955;DHT22;62306;52.516;13.290;2024-02-23T02:00:53;11.30;99.90
73955;DHT22;62306;52.516;13.290;2024-02-23T02:03:19;11.30;99.90
73955;DHT22;62306;52.516;13.290;2024-02-23T02:05:48;11.30;99.90
73955;DHT22;62306;52.516;13.290;2024-02-23T02:08:16;11.40;99.90
73955;DHT22;62306;52.516;13.290;2024-02-23T02:10:43;11.40;99.90
73955;DHT22;62306;52.516;13.290;2024-02-23T02:13:12;11.40;99.90
73955;DHT22;62306;52.516;13.290;2024-02-23T02:15:39;11.40;99.90
73955;DHT22;62306;52.516;13.290;2024-02-23T02:18:06;11.30;99.90
73955;DHT22;62306;52.516;13.290;2024-02-23T02:20:33;11.20;99.90
73955;DHT22;62306;52.516;13.290;2024-02-23T02:23:04;11.10;99.90
73955;DHT22;62306;52.516;13.290;2024-02-23T02:25:32;11.10;99.90
73955;DHT22;62306;52.516;13.290;2024-02-23T02:27:59;11.10;99.90
73955;DHT22;62306;52.516;13.290;2024-02-23T02:30:26;11.00;99.90
73955;DHT22;62306;52.516;13.290;2024-02-23T02:32:53;11.20;99.90
73955;DHT22;62306;52.516;13.290;2024-02-23T02:35:20;11.00;99.90
73955;DHT22;62306;52.516;13.290;2024-02-23T02:37:48;10.90;99.90
73955;DHT22;62306;52.516;13.290;2024-02-23T02:40:17;10.90;99.90
73955;DHT22;62306;52.516;13.290;2024-02-23T02:42:44;10.90;99.90
73955;DHT22;62306;52.516;13.290;2024-02-23T02:45:11;10.50;99.90
73955;DHT22;62306;52.516;13.290;2024-02-23T02:47:38;10.80;99.90
73955;DHT22;62306;52.516;13.290;2024-02-23T02:50:06;10.70;99.90
73955;DHT22;62306;52.516;13.290;2024-02-23T02:52:33;10.60;99.90
73955;DHT22;62306;52.516;13.290;2024-02-23T02:55:00;10.50;99.90
73955;DHT22;62306;52.516;13.290;2024-02-23T02:57:28;10.50;99.90
73955;DHT22;62306;52.516;13.290;2024-02-23T02:59:55;10.50;99.90
73955;DHT22;62306;52.516;13.290;2024-02-23T03:02:22;10.50;99.90
73955;DHT22;62306;52.516;13.290;2024-02-23T03:04:49;10.50;99.90
73955;DHT22;62306;52.516;13.290;2024-02-23T03:07:17;10.50;99.90
73955;DHT22;62306;52.516;13.290;2024-02-23T03:09:43;10.30;99.90
73955;DHT22;62306;52.516;13.290;2024-02-23T03:12:11;10.30;99.90
73955;DHT22;62306;52.516;13.290;2024-02-23T03:14:39;10.30;99.90
73955;DHT22;62306;52.516;13.290;2024-02-23T03:17:07;10.30;99.90
73955;DHT22;62306;52.516;13.290;2024-02-23T03:19:35;10.20;99.90
73955;DHT22;62306;52.516;13.290;2024-02-23T03:22:02;10.20;99.90
73955;DHT22;62306;52.516;13.290;2024-02-23T03:24:29;10.20;99.90
73955;DHT22;62306;52.516;13.290;2024-02-23T03:26:56;10.10;99.90
73955;DHT22;62306;52.516;13.290;2024-02-23T03:29:23;10.00;99.90
73955;DHT22;62306;52.516;13.290;2024-02-23T03:31:52;10.00;99.90
73955;DHT22;62306;52.516;13.290;2024-02-23T03:34:19;10.00;99.90
73955;DHT22;62306;52.516;13.290;2024-02-23T03:36:46;9.90;99.90
73955;DHT22;62306;52.516;13.290;2024-02-23T03:39:14;9.90;99.90
73955;DHT22;62306;52.516;13.290;2024-02-23T03:41:41;9.90;99.90
73955;DHT22;62306;52.516;13.290;2024-02-23T03:44:07;9.90;99.90
73955;DHT22;62306;52.516;13.290;2024-02-23T03:46:35;9.90;99.90
73955;DHT22;62306;52.516;13.290;2024-02-23T03:49:04;9.80;99.90
73955;DHT22;62306;52.516;13.290;2024-02-23T03:51:31;9.80;99.90
73955;DHT22;62306;52.516;13.290;2024-02-23T03:54:00;9.80;99.90
73955;DHT22;62306;52.516;13.290;2024-02-23T03:56:27;9.80;99.90
73955;DHT22;62306;52.516;13.290;2024-02-23T03:58:54;9.80;99.90
73955;DHT22;62306;52.516;13.290;2024-02-23T04:01:21;9.90;99.90
73955;DHT22;62306;52.516;13.290;2024-02-23T04:03:48;9.80;99.90
73955;DHT22;62306;52.516;13.290;2024-02-23T04:06:16;9.80;99.90
73955;DHT22;62306;52.516;13.290;2024-02-23T04:08:43;9.80;99.90
73955;DHT22;62306;52.516;13.290;2024-02-23T04:11:12;9.80;99.90
73955;DHT22;62306;52.516;13.290;2024-02-23T04:13:39;9.80;99.90
73955;DHT22;62306;52.516;13.290;2024-02-23T04:16:06;9.90;99.90
73955;DHT22;62306;52.516;13.290;2024-02-23T04:18:33;9.80;99.90
73955;DHT22;62306;52.516;13.290;2024-02-23T04:21:00;9.80;99.90
73955;DHT22;62306;52.516;13.290;2024-02-23T04:23:28;9.70;99.90
73955;DHT22;62306;52.516;13.290;2024-02-23T04:25:56;9.60;99.90
73955;DHT22;62306;52.516;13.290;2024-02-23T04:28:23;9.60;99.90
73955;DHT22;62306;52.516;13.290;2024-02-23T04:30:52;9.60;99.90
73955;DHT22;62306;52.516;13.290;2024-02-23T04:33:19;9.60;99.90
73955;DHT22;62306;52.516;13.290;2024-02-23T04:35:45;9.50;99.90
73955;DHT22;62306;52.516;13.290;2024-02-23T04:38:12;9.50;99.90
73955;DHT22;62306;52.516;13.290;2024-02-23T04:40:41;9.40;99.90
73955;DHT22;62306;52.516;13.290;2024-02-23T04:43:08;9.30;99.90
73955;DHT22;62306;52.516;13.290;2024-02-23T04:45:35;9.40;99.90
73955;DHT22;62306;52.516;13.290;2024-02-23T04:48:02;9.50;99.90
73955;DHT22;62306;52.516;13.290;2024-02-23T04:50:29;9.50;99.90
73955;DHT22;62306;52.516;13.290;2024-02-23T04:52:56;9.50;99.90
73955;DHT22;62306;52.516;13.290;2024-02-23T04:55:23;9.60;99.90
73955;DHT22;62306;52.516;13.290;2024-02-23T04:57:51;9.60;99.90
73955;DHT22;62306;52.516;13.290;2024-02-23T05:00:18;9.50;99.90
73955;DHT22;62306;52.516;13.290;2024-02-23T05:02:45;9.50;99.90
73955;DHT22;62306;52.516;13.290;2024-02-23T05:05:12;9.40;99.90
73955;DHT22;62306;52.516;13.290;2024-02-23T05:07:39;9.40;99.90
73955;DHT22;62306;52.516;13.290;2024-02-23T05:10:07;9.40;99.90
73955;DHT22;62306;52.516;13.290;2024-02-23T05:12:34;9.40;99.90
73955;DHT22;62306;52.516;13.290;2024-02-23T05:15:03;9.40;99.90
73955;DHT22;62306;52.516;13.290;2024-02-23T05:17:30;9.40;99.90
73955;DHT22;62306;52.516;13.290;2024-02-23T05:19:57;9.40;99.90
73955;DHT22;62306;52.516;13.290;2024-02-23T05:22:24;9.30;99.90
73955;DHT22;62306;52.516;13.290;2024-02-23T05:24:51;9.20;99.90
73955;DHT22;62306;52.516;13.290;2024-02-23T05:27:17;9.10;99.90
73955;DHT22;62306;52.516;13.290;2024-02-23T05:29:44;9.00;99.90
73955;DHT22;62306;52.516;13.290;2024-02-23T05:32:13;9.10;99.90
73955;DHT22;62306;52.516;13.290;2024-02-23T05:34:40;9.00;99.90
73955;DHT22;62306;52.516;13.290;2024-02-23T05:37:07;8.90;99.90
73955;DHT22;62306;52.516;13.290;2024-02-23T05:39:34;8.90;99.90
73955;DHT22;62306;52.516;13.290;2024-02-23T05:42:03;8.80;99.90
73955;DHT22;62306;52.516;13.290;2024-02-23T05:44:30;8.80;99.90
73955;DHT22;62306;52.516;13.290;2024-02-23T05:46:57;8.60;99.90
73955;DHT22;62306;52.516;13.290;2024-02-23T05:49:25;8.50;99.90
73955;DHT22;62306;52.516;13.290;2024-02-23T05:51:52;8.50;99.90
73955;DHT22;62306;52.516;13.290;2024-02-23T05:54:19;8.40;99.90
73955;DHT22;62306;52.516;13.290;2024-02-23T05:56:46;8.40;99.90
73955;DHT22;62306;52.516;13.290;2024-02-23T05:59:13;8.40;99.90
73955;DHT22;62306;52.516;13.290;2024-02-23T06:01:40;8.30;99.90
73955;DHT22;62306;52.516;13.290;2024-02-23T06:04:07;8.20;99.90
73955;DHT22;62306;52.516;13.290;2024-02-23T06:06:35;8.20;99.90
73955;DHT22;62306;52.516;13.290;2024-02-23T06:09:03;8.20;99.90
73955;DHT22;62306;52.516;13.290;2024-02-23T06:11:31;8.20;99.90
73955;DHT22;62306;52.516;13.290;2024-02-23T06:13:58;8.20;99.90
73955;DHT22;62306;52.516;13.290;2024-02-23T06:16:25;8.30;99.90
73955;DHT22;62306;52.516;13.290;2024-02-23T06:18:52;8.30;99.90
73955;DHT22;62306;52.516;13.290;2024-02-23T06:21:18;8.30;99.90
73955;DHT22;62306;52.516;13.290;2024-02-23T06:23:47;8.20;99.90
73955;DHT22;62306;52.516;13.290;2024-02-23T06:26:14;8.20;99.90
73955;DHT22;62306;52.516;13.290;2024-02-23T06:28:41;8.20;99.90
73955;DHT22;62306;52.516;13.290;2024-02-23T06:31:09;8.20;99.90
73955;DHT22;62306;52.516;13.290;2024-02-23T06:33:36;8.20;99.90
73955;DHT22;62306;52.516;13.290;2024-02-23T06:36:03;8.20;99.90
73955;DHT22;62306;52.516;13.290;2024-02-23T06:38:30;8.10;99.90
73955;DHT22;62306;52.516;13.290;2024-02-23T06:40:59;8.10;99.90
73955;DHT22;62306;52.516;13.290;2024-02-23T06:43:26;8.20;99.90
73955;DHT22;62306;52.516;13.290;2024-02-23T06:45:53;8.20;99.90
73955;DHT22;62306;52.516;13.290;2024-02-23T06:48:20;8.30;99.90
73955;DHT22;62306;52.516;13.290;2024-02-23T06:50:47;8.40;99.90
73955;DHT22;62306;52.516;13.290;2024-02-23T06:53:13;8.40;99.90
73955;DHT22;62306;52.516;13.290;2024-02-23T06:55:40;8.50;99.90
73955;DHT22;62306;52.516;13.290;2024-02-23T06:58:09;8.60;99.90
73955;DHT22;62306;52.516;13.290;2024-02-23T07:00:36;8.70;99.90
73955;DHT22;62306;52.516;13.290;2024-02-23T07:03:04;8.90;99.90
73955;DHT22;62306;52.516;13.290;2024-02-23T07:05:31;9.10;99.90
73955;DHT22;62306;52.516;13.290;2024-02-23T07:07:58;9.10;99.90
73955;DHT22;62306;52.516;13.290;2024-02-23T07:10:25;9.10;99.90
73955;DHT22;62306;52.516;13.290;2024-02-23T07:12:52;9.20;99.90
73955;DHT22;62306;52.516;13.290;2024-02-23T07:15:22;9.10;99.90
73955;DHT22;62306;52.516;13.290;2024-02-23T07:17:50;9.10;99.90
73955;DHT22;62306;52.516;13.290;2024-02-23T07:20:17;9.10;99.90
73955;DHT22;62306;52.516;13.290;2024-02-23T07:22:44;9.10;99.90
73955;DHT22;62306;52.516;13.290;2024-02-23T07:25:15;9.10;99.90
73955;DHT22;62306;52.516;13.290;2024-02-23T07:27:42;9.20;99.90
73955;DHT22;62306;52.516;13.290;2024-02-23T07:30:10;9.20;99.90
73955;DHT22;62306;52.516;13.290;2024-02-23T07:32:39;9.20;99.90
73955;DHT22;62306;52.516;13.290;2024-02-23T07:35:06;9.20;99.90
73955;DHT22;62306;52.516;13.290;2024-02-23T07:37:33;9.10;99.90
73955;DHT22;62306;52.516;13.290;2024-02-23T07:40:00;9.00;99.90
73955;DHT22;62306;52.516;13.290;2024-02-23T07:42:28;9.00;99.90
73955;DHT22;62306;52.516;13.290;2024-02-23T07:44:56;9.00;99.90
73955;DHT22;62306;52.516;13.290;2024-02-23T07:47:23;9.10;99.90
73955;DHT22;62306;52.516;13.290;2024-02-23T07:49:53;9.20;99.90
73955;DHT22;62306;52.516;13.290;2024-02-23T07:52:20;9.40;99.90
73955;DHT22;62306;52.516;13.290;2024-02-23T07:54:49;9.50;99.90
73955;DHT22;62306;52.516;13.290;2024-02-23T07:57:17;9.50;99.90
73955;DHT22;62306;52.516;13.290;2024-02-23T07:59:44;9.50;99.90
73955;DHT22;62306;52.516;13.290;2024-02-23T08:02:11;9.70;99.90
73955;DHT22;62306;52.516;13.290;2024-02-23T08:04:38;10.00;99.90
73955;DHT22;62306;52.516;13.290;2024-02-23T08:07:06;10.30;99.90
73955;DHT22;62306;52.516;13.290;2024-02-23T08:09:33;10.50;99.90
73955;DHT22;62306;52.516;13.290;2024-02-23T08:12:00;10.80;99.90
73955;DHT22;62306;52.516;13.290;2024-02-23T08:14:27;11.10;99.90
73955;DHT22;62306;52.516;13.290;2024-02-23T08:16:54;11.20;99.90
73955;DHT22;62306;52.516;13.290;2024-02-23T08:19:21;11.30;99.90
73955;DHT22;62306;52.516;13.290;2024-02-23T08:21:48;11.40;99.90
73955;DHT22;62306;52.516;13.290;2024-02-23T08:24:16;11.50;99.70
73955;DHT22;62306;52.516;13.290;2024-02-23T08:26:43;11.50;99.70
73955;DHT22;62306;52.516;13.290;2024-02-23T08:29:10;11.50;99.80
73955;DHT22;62306;52.516;13.290;2024-02-23T08:31:37;11.40;99.10
73955;DHT22;62306;52.516;13.290;2024-02-23T08:34:04;11.20;99.30
73955;DHT22;62306;52.516;13.290;2024-02-23T08:36:31;11.20;99.50
73955;DHT22;62306;52.516;13.290;2024-02-23T08:38:58;11.20;99.90
73955;DHT22;62306;52.516;13.290;2024-02-23T08:41:26;11.20;99.30
73955;DHT22;62306;52.516;13.290;2024-02-23T08:43:53;11.20;99.10
73955;DHT22;62306;52.516;13.290;2024-02-23T08:46:21;11.10;99.50
73955;DHT22;62306;52.516;13.290;2024-02-23T08:48:48;11.00;99.90
73955;DHT22;62306;52.516;13.290;2024-02-23T08:51:15;11.00;99.90
73955;DHT22;62306;52.516;13.290;2024-02-23T08:53:42;10.90;99.20
73955;DHT22;62306;52.516;13.290;2024-02-23T08:56:09;10.80;98.90
73955;DHT22;62306;52.516;13.290;2024-02-23T08:58:38;10.80;99.10
73955;DHT22;62306;52.516;13.290;2024-02-23T09:01:05;10.90;99.40
73955;DHT22;62306;52.516;13.290;2024-02-23T09:03:32;10.90;99.90
73955;DHT22;62306;52.516;13.290;2024-02-23T09:05:59;10.90;98.70
73955;DHT22;62306;52.516;13.290;2024-02-23T09:08:26;10.90;99.20
73955;DHT22;62306;52.516;13.290;2024-02-23T09:10:53;10.90;98.80
73955;DHT22;62306;52.516;13.290;2024-02-23T09:13:19;10.90;99.40
73955;DHT22;62306;52.516;13.290;2024-02-23T09:15:48;10.80;99.30
73955;DHT22;62306;52.516;13.290;2024-02-23T09:18:15;10.80;99.00
73955;DHT22;62306;52.516;13.290;2024-02-23T09:20:42;11.00;98.60
73955;DHT22;62306;52.516;13.290;2024-02-23T09:23:09;11.20;97.60
73955;DHT22;62306;52.516;13.290;2024-02-23T09:25:37;11.50;96.20
73955;DHT22;62306;52.516;13.290;2024-02-23T09:28:05;11.80;95.40
73955;DHT22;62306;52.516;13.290;2024-02-23T09:30:32;12.00;94.80
73955;DHT22;62306;52.516;13.290;2024-02-23T09:33:00;11.90;93.60
73955;DHT22;62306;52.516;13.290;2024-02-23T09:35:27;11.70;96.40
73955;DHT22;62306;52.516;13.290;2024-02-23T09:37:54;11.70;96.20
73955;DHT22;62306;52.516;13.290;2024-02-23T09:40:21;11.80;92.70
73955;DHT22;62306;52.516;13.290;2024-02-23T09:42:54;10.90;92.20
73955;DHT22;62306;52.516;13.290;2024-02-23T09:45:22;11.50;94.30
73955;DHT22;62306;52.516;13.290;2024-02-23T09:47:49;11.30;93.00
73955;DHT22;62306;52.516;13.290;2024-02-23T09:50:18;11.20;94.30
73955;DHT22;62306;52.516;13.290;2024-02-23T09:52:47;11.40;94.20
73955;DHT22;62306;52.516;13.290;2024-02-23T09:55:16;11.60;92.80
73955;DHT22;62306;52.516;13.290;2024-02-23T09:57:43;11.70;93.10
73955;DHT22;62306;52.516;13.290;2024-02-23T10:00:12;11.70;92.70
73955;DHT22;62306;52.516;13.290;2024-02-23T10:02:43;11.60;93.40
73955;DHT22;62306;52.516;13.290;2024-02-23T10:05:10;11.60;93.60
73955;DHT22;62306;52.516;13.290;2024-02-23T10:07:40;11.60;95.00
73955;DHT22;62306;52.516;13.290;2024-02-23T10:10:08;11.70;95.10
73955;DHT22;62306;52.516;13.290;2024-02-23T10:12:36;11.80;94.60
73955;DHT22;62306;52.516;13.290;2024-02-23T10:15:04;11.90;95.40
73955;DHT22;62306;52.516;13.290;2024-02-23T10:17:31;12.00;95.30
73955;DHT22;62306;52.516;13.290;2024-02-23T10:19:59;12.10;95.60
73955;DHT22;62306;52.516;13.290;2024-02-23T10:22:30;12.00;94.80
73955;DHT22;62306;52.516;13.290;2024-02-23T10:24:59;12.00;94.50
73955;DHT22;62306;52.516;13.290;2024-02-23T10:27:26;12.00;95.10
73955;DHT22;62306;52.516;13.290;2024-02-23T10:29:53;11.90;95.20
73955;DHT22;62306;52.516;13.290;2024-02-23T10:32:20;12.00;95.50
73955;DHT22;62306;52.516;13.290;2024-02-23T10:34:48;12.10;96.60
73955;DHT22;62306;52.516;13.290;2024-02-23T10:37:16;11.70;94.10
73955;DHT22;62306;52.516;13.290;2024-02-23T10:39:45;12.30;92.30
73955;DHT22;62306;52.516;13.290;2024-02-23T10:42:14;12.30;91.50
73955;DHT22;62306;52.516;13.290;2024-02-23T10:44:44;12.40;92.70
73955;DHT22;62306;52.516;13.290;2024-02-23T10:47:12;12.30;91.10
73955;DHT22;62306;52.516;13.290;2024-02-23T10:49:39;12.10;91.10
73955;DHT22;62306;52.516;13.290;2024-02-23T10:52:07;12.10;90.60
73955;DHT22;62306;52.516;13.290;2024-02-23T10:54:38;12.10;86.40
73955;DHT22;62306;52.516;13.290;2024-02-23T10:57:06;12.10;85.10
73955;DHT22;62306;52.516;13.290;2024-02-23T10:59:35;12.10;87.20
73955;DHT22;62306;52.516;13.290;2024-02-23T11:02:03;12.10;88.60
73955;DHT22;62306;52.516;13.290;2024-02-23T11:04:31;12.10;90.00
73955;DHT22;62306;52.516;13.290;2024-02-23T11:06:59;12.20;90.50
73955;DHT22;62306;52.516;13.290;2024-02-23T11:09:32;12.20;90.70
73955;DHT22;62306;52.516;13.290;2024-02-23T11:12:03;12.40;88.90
73955;DHT22;62306;52.516;13.290;2024-02-23T11:14:30;12.30;90.20
73955;DHT22;62306;52.516;13.290;2024-02-23T11:17:00;12.50;89.50
73955;DHT22;62306;52.516;13.290;2024-02-23T11:19:34;12.50;90.00
73955;DHT22;62306;52.516;13.290;2024-02-23T11:22:01;12.40;86.60
73955;DHT22;62306;52.516;13.290;2024-02-23T11:24:29;12.30;86.60
73955;DHT22;62306;52.516;13.290;2024-02-23T11:26:57;12.10;86.50
73955;DHT22;62306;52.516;13.290;2024-02-23T11:29:26;12.10;85.70
73955;DHT22;62306;52.516;13.290;2024-02-23T11:31:55;12.00;90.00
73955;DHT22;62306;52.516;13.290;2024-02-23T11:34:28;11.90;89.20
73955;DHT22;62306;52.516;13.290;2024-02-23T11:36:55;11.90;83.80
73955;DHT22;62306;52.516;13.290;2024-02-23T11:39:25;11.90;84.10
73955;DHT22;62306;52.516;13.290;2024-02-23T11:41:52;12.10;82.90
73955;DHT22;62306;52.516;13.290;2024-02-23T11:44:19;12.30;84.40
73955;DHT22;62306;52.516;13.290;2024-02-23T11:46:47;12.30;81.40
73955;DHT22;62306;52.516;13.290;2024-02-23T11:49:14;12.30;82.20
73955;DHT22;62306;52.516;13.290;2024-02-23T11:51:43;12.30;82.60
73955;DHT22;62306;52.516;13.290;2024-02-23T11:54:10;12.30;88.00
73955;DHT22;62306;52.516;13.290;2024-02-23T11:56:37;12.30;86.00
73955;DHT22;62306;52.516;13.290;2024-02-23T11:59:05;12.40;85.30
73955;DHT22;62306;52.516;13.290;2024-02-23T12:01:31;12.40;85.60
73955;DHT22;62306;52.516;13.290;2024-02-23T12:03:58;12.40;85.70
73955;DHT22;62306;52.516;13.290;2024-02-23T12:06:26;12.40;86.50
73955;DHT22;62306;52.516;13.290;2024-02-23T12:08:57;12.30;86.90
73955;DHT22;62306;52.516;13.290;2024-02-23T12:11:24;12.40;83.60
73955;DHT22;62306;52.516;13.290;2024-02-23T12:13:52;12.40;84.70
73955;DHT22;62306;52.516;13.290;2024-02-23T12:16:20;12.50;83.80
73955;DHT22;62306;52.516;13.290;2024-02-23T12:18:53;12.40;84.60
73955;DHT22;62306;52.516;13.290;2024-02-23T12:21:20;12.40;81.50
73955;DHT22;62306;52.516;13.290;2024-02-23T12:23:49;12.40;83.30
73955;DHT22;62306;52.516;13.290;2024-02-23T12:26:18;12.60;83.90
73955;DHT22;62306;52.516;13.290;2024-02-23T12:28:45;12.50;86.40
73955;DHT22;62306;52.516;13.290;2024-02-23T12:31:12;12.30;87.60
73955;DHT22;62306;52.516;13.290;2024-02-23T12:33:39;12.10;88.10
73955;DHT22;62306;52.516;13.290;2024-02-23T12:36:08;12.20;86.60
73955;DHT22;62306;52.516;13.290;2024-02-23T12:38:35;12.30;87.50
73955;DHT22;62306;52.516;13.290;2024-02-23T12:41:04;12.30;88.50
73955;DHT22;62306;52.516;13.290;2024-02-23T12:43:32;12.30;86.10
73955;DHT22;62306;52.516;13.290;2024-02-23T12:45:59;12.30;85.20
73955;DHT22;62306;52.516;13.290;2024-02-23T12:48:28;12.40;86.70
73955;DHT22;62306;52.516;13.290;2024-02-23T12:50:55;12.20;84.80
73955;DHT22;62306;52.516;13.290;2024-02-23T12:53:33;12.20;84.60
73955;DHT22;62306;52.516;13.290;2024-02-23T12:56:02;12.30;83.30
73955;DHT22;62306;52.516;13.290;2024-02-23T12:58:29;12.20;83.60
73955;DHT22;62306;52.516;13.290;2024-02-23T13:00:58;12.10;83.40
73955;DHT22;62306;52.516;13.290;2024-02-23T13:03:25;12.10;86.00
73955;DHT22;62306;52.516;13.290;2024-02-23T13:05:53;12.00;86.70
73955;DHT22;62306;52.516;13.290;2024-02-23T13:08:20;12.00;89.00
73955;DHT22;62306;52.516;13.290;2024-02-23T13:10:47;12.00;89.80
73955;DHT22;62306;52.516;13.290;2024-02-23T13:13:14;11.90;90.10
73955;DHT22;62306;52.516;13.290;2024-02-23T13:15:42;12.00;88.90
73955;DHT22;62306;52.516;13.290;2024-02-23T13:18:11;12.00;89.20
73955;DHT22;62306;52.516;13.290;2024-02-23T13:20:38;12.00;90.00
73955;DHT22;62306;52.516;13.290;2024-02-23T13:23:07;12.00;90.50
73955;DHT22;62306;52.516;13.290;2024-02-23T13:25:35;12.00;91.10
73955;DHT22;62306;52.516;13.290;2024-02-23T13:28:02;11.90;91.20
73955;DHT22;62306;52.516;13.290;2024-02-23T13:30:30;11.70;91.60
73955;DHT22;62306;52.516;13.290;2024-02-23T13:32:57;11.70;93.00
73955;DHT22;62306;52.516;13.290;2024-02-23T13:35:26;11.70;93.40
73955;DHT22;62306;52.516;13.290;2024-02-23T13:37:53;11.30;93.90
73955;DHT22;62306;52.516;13.290;2024-02-23T13:40:20;11.20;94.90
73955;DHT22;62306;52.516;13.290;2024-02-23T13:42:47;11.20;95.00
73955;DHT22;62306;52.516;13.290;2024-02-23T13:45:16;11.10;94.00
73955;DHT22;62306;52.516;13.290;2024-02-23T13:47:43;11.00;94.70
73955;DHT22;62306;52.516;13.290;2024-02-23T13:50:21;11.10;93.80
73955;DHT22;62306;52.516;13.290;2024-02-23T13:52:50;11.20;94.50
73955;DHT22;62306;52.516;13.290;2024-02-23T13:55:17;11.30;93.70
73955;DHT22;62306;52.516;13.290;2024-02-23T13:57:46;11.40;93.20
73955;DHT22;62306;52.516;13.290;2024-02-23T14:00:14;11.50;92.90
73955;DHT22;62306;52.516;13.290;2024-02-23T14:02:41;11.50;92.90
73955;DHT22;62306;52.516;13.290;2024-02-23T14:05:08;11.40;93.60
73955;DHT22;62306;52.516;13.290;2024-02-23T14:07:35;11.40;94.20
73955;DHT22;62306;52.516;13.290;2024-02-23T14:10:05;11.40;92.90
73955;DHT22;62306;52.516;13.290;2024-02-23T14:12:32;11.30;94.10
73955;DHT22;62306;52.516;13.290;2024-02-23T14:14:59;11.30;93.40
73955;DHT22;62306;52.516;13.290;2024-02-23T14:17:26;11.40;92.50
73955;DHT22;62306;52.516;13.290;2024-02-23T14:19:53;11.30;93.10
73955;DHT22;62306;52.516;13.290;2024-02-23T14:22:20;11.20;93.90
73955;DHT22;62306;52.516;13.290;2024-02-23T14:24:47;11.10;94.60
73955;DHT22;62306;52.516;13.290;2024-02-23T14:27:15;11.00;94.60
73955;DHT22;62306;52.516;13.290;2024-02-23T14:29:43;10.90;95.00
73955;DHT22;62306;52.516;13.290;2024-02-23T14:32:10;10.70;94.50
73955;DHT22;62306;52.516;13.290;2024-02-23T14:34:41;10.70;94.60
73955;DHT22;62306;52.516;13.290;2024-02-23T14:37:08;10.80;94.50
73955;DHT22;62306;52.516;13.290;2024-02-23T14:39:35;10.60;95.30
73955;DHT22;62306;52.516;13.290;2024-02-23T14:42:02;10.50;95.40
73955;DHT22;62306;52.516;13.290;2024-02-23T14:44:31;10.50;94.60
73955;DHT22;62306;52.516;13.290;2024-02-23T14:46:58;10.50;94.90
73955;DHT22;62306;52.516;13.290;2024-02-23T14:49:25;10.70;95.60
73955;DHT22;62306;52.516;13.290;2024-02-23T14:51:52;10.70;95.60
73955;DHT22;62306;52.516;13.290;2024-02-23T14:54:19;10.60;95.70
73955;DHT22;62306;52.516;13.290;2024-02-23T14:56:46;10.60;95.30
73955;DHT22;62306;52.516;13.290;2024-02-23T14:59:13;10.60;95.10
73955;DHT22;62306;52.516;13.290;2024-02-23T15:01:42;10.60;95.00
73955;DHT22;62306;52.516;13.290;2024-02-23T15:04:09;10.60;95.80
73955;DHT22;62306;52.516;13.290;2024-02-23T15:06:36;10.60;96.40
73955;DHT22;62306;52.516;13.290;2024-02-23T15:09:03;10.60;96.70
73955;DHT22;62306;52.516;13.290;2024-02-23T15:11:31;10.50;96.90
73955;DHT22;62306;52.516;13.290;2024-02-23T15:13:58;10.40;97.00
73955;DHT22;62306;52.516;13.290;2024-02-23T15:16:27;10.40;97.20
73955;DHT22;62306;52.516;13.290;2024-02-23T15:18:57;10.40;97.90
73955;DHT22;62306;52.516;13.290;2024-02-23T15:21:24;10.30;97.40